createdAt,value
2017-11-29T00:02:00.281Z,12.40
2017-11-29T00:04:28.435Z,14.27
2017-11-29T00:06:57.240Z,15.77
2017-11-29T00:09:25.313Z,12.93
2017-11-29T00:11:53.644Z,15.40
2017-11-29T00:14:21.729Z,15.50
2017-11-29T00:16:49.815Z,15.77
2017-11-29T00:19:18.620Z,14.83
2017-11-29T00:21:46.736Z,16.73
2017-11-29T00:24:14.893Z,16.10
2017-11-29T00:26:42.988Z,14.43
2017-11-29T00:29:11.041Z,17.27
2017-11-29T00:31:39.137Z,15.17
2017-11-29T00:34:07.232Z,14.87
2017-11-29T00:36:35.628Z,16.50
2017-11-29T00:39:03.937Z,15.23
2017-11-29T00:41:32.072Z,19.87
2017-11-29T00:44:00.160Z,15.23
2017-11-29T00:46:28.465Z,15.00
2017-11-29T00:48:56.545Z,16.33
2017-11-29T00:51:24.865Z,16.50
2017-11-29T00:53:53.665Z,17.93
2017-11-29T00:56:21.981Z,17.13
2017-11-29T00:58:50.109Z,16.10
2017-11-29T01:01:18.973Z,22.70
2017-11-29T01:03:47.101Z,18.17
2017-11-29T01:06:15.207Z,19.13
2017-11-29T01:08:43.268Z,17.47
2017-11-29T01:11:11.648Z,17.53
2017-11-29T01:13:39.701Z,18.07
2017-11-29T01:16:07.867Z,17.73
2017-11-29T01:18:35.909Z,18.10
2017-11-29T01:21:05.144Z,16.97
2017-11-29T01:23:33.204Z,15.90
2017-11-29T01:26:01.266Z,17.97
2017-11-29T01:28:29.324Z,16.83
2017-11-29T01:30:57.365Z,16.47
2017-11-29T01:33:25.414Z,17.80
2017-11-29T01:35:53.781Z,18.10
2017-11-29T01:38:21.817Z,18.30
2017-11-29T01:40:49.897Z,17.47
2017-11-29T01:43:17.937Z,15.37
2017-11-29T01:45:47.500Z,22.73
2017-11-29T01:48:15.636Z,18.10
2017-11-29T01:50:44.460Z,16.20
2017-11-29T01:53:12.505Z,17.30
2017-11-29T01:55:40.842Z,19.03
2017-11-29T01:58:09.356Z,17.70
2017-11-29T02:00:48.052Z,15.70
2017-11-29T02:03:16.130Z,16.63
2017-11-29T02:05:44.212Z,16.20
2017-11-29T02:08:12.252Z,22.37
2017-11-29T02:10:40.314Z,20.67
2017-11-29T02:13:08.772Z,21.97
2017-11-29T02:15:36.866Z,22.20
2017-11-29T02:18:05.148Z,16.70
2017-11-29T02:20:33.309Z,17.77
2017-11-29T02:23:01.512Z,15.60
2017-11-29T02:25:29.713Z,18.60
2017-11-29T02:27:57.873Z,20.30
2017-11-29T02:30:26.295Z,20.60
2017-11-29T02:32:54.421Z,16.57
2017-11-29T02:35:22.477Z,17.57
2017-11-29T02:37:50.625Z,18.43
2017-11-29T02:42:35.447Z,17.93
2017-11-29T02:45:03.616Z,17.60
2017-11-29T02:47:31.985Z,18.23
2017-11-29T02:50:00.139Z,17.70
2017-11-29T02:52:28.626Z,17.83
2017-11-29T02:54:56.789Z,20.57
2017-11-29T02:57:24.960Z,20.33
2017-11-29T02:59:53.269Z,25.50
2017-11-29T03:02:21.361Z,19.50
2017-11-29T03:04:49.417Z,19.73
2017-11-29T03:07:17.919Z,16.53
2017-11-29T03:09:45.970Z,19.83
2017-11-29T03:12:14.021Z,22.17
2017-11-29T03:14:42.089Z,22.67
2017-11-29T03:17:10.373Z,16.57
2017-11-29T03:19:38.476Z,18.40
2017-11-29T03:22:06.518Z,21.00
2017-11-29T03:24:34.561Z,18.90
2017-11-29T03:27:02.653Z,19.33
2017-11-29T03:29:31.116Z,21.37
2017-11-29T03:31:59.176Z,20.10
2017-11-29T03:34:27.241Z,21.40
2017-11-29T03:36:55.276Z,20.07
2017-11-29T03:39:23.341Z,20.10
2017-11-29T03:41:51.677Z,23.07
2017-11-29T03:44:19.722Z,20.57
2017-11-29T03:46:47.841Z,20.57
2017-11-29T03:49:15.892Z,21.00
2017-11-29T03:51:43.933Z,20.43
2017-11-29T03:54:12.468Z,19.53
2017-11-29T03:56:40.560Z,19.13
2017-11-29T03:59:08.623Z,19.23
2017-11-29T04:01:36.673Z,21.63
2017-11-29T04:04:04.968Z,20.03
2017-11-29T04:06:33.040Z,19.30
2017-11-29T04:09:01.503Z,19.40
2017-11-29T04:11:29.624Z,19.40
2017-11-29T04:13:57.869Z,20.60
2017-11-29T04:16:25.969Z,21.37
2017-11-29T04:18:54.134Z,21.20
2017-11-29T04:21:22.276Z,20.73
2017-11-29T04:23:50.393Z,19.27
2017-11-29T04:26:18.520Z,17.83
2017-11-29T04:28:46.711Z,19.10
2017-11-29T04:31:14.776Z,20.07
2017-11-29T04:33:42.867Z,18.83
2017-11-29T04:36:10.913Z,20.57
2017-11-29T04:38:38.961Z,20.93
2017-11-29T04:41:07.736Z,19.43
2017-11-29T04:43:36.782Z,17.70
2017-11-29T04:46:04.861Z,18.87
2017-11-29T04:48:32.973Z,20.47
2017-11-29T04:51:03.042Z,17.80
2017-11-29T04:53:31.164Z,20.10
2017-11-29T04:56:00.058Z,22.87
2017-11-29T04:58:28.898Z,19.67
2017-11-29T05:00:56.993Z,19.90
2017-11-29T05:03:25.169Z,19.50
2017-11-29T05:05:53.332Z,20.33
2017-11-29T05:08:21.436Z,17.67
2017-11-29T05:10:49.568Z,19.90
2017-11-29T05:13:17.679Z,17.60
2017-11-29T05:15:46.550Z,20.00
2017-11-29T05:18:14.669Z,18.50
2017-11-29T05:20:42.860Z,19.40
2017-11-29T05:23:11.028Z,19.57
2017-11-29T05:25:39.118Z,23.80
2017-11-29T05:28:07.230Z,23.50
2017-11-29T05:30:35.413Z,22.43
2017-11-29T05:33:03.720Z,21.53
2017-11-29T05:35:31.849Z,20.00
2017-11-29T05:37:59.981Z,18.63
2017-11-29T05:40:28.105Z,22.00
2017-11-29T05:42:56.268Z,24.20
2017-11-29T05:45:24.756Z,24.23
2017-11-29T05:47:53.629Z,22.87
2017-11-29T05:50:21.765Z,24.33
2017-11-29T05:52:49.897Z,19.77
2017-11-29T05:55:18.056Z,17.27
2017-11-29T05:57:46.912Z,20.80
2017-11-29T06:00:15.089Z,22.30
2017-11-29T06:02:43.251Z,21.40
2017-11-29T06:05:11.409Z,28.00
2017-11-29T06:07:39.559Z,22.97
2017-11-29T06:10:08.402Z,19.73
2017-11-29T06:12:36.545Z,21.37
2017-11-29T06:15:04.849Z,19.23
2017-11-29T06:17:33.548Z,18.07
2017-11-29T06:20:01.722Z,18.00
2017-11-29T06:22:29.844Z,21.97
2017-11-29T06:24:57.969Z,19.37
2017-11-29T06:27:26.074Z,19.60
2017-11-29T06:29:54.173Z,19.87
2017-11-29T06:32:22.949Z,19.57
2017-11-29T06:34:50.992Z,18.33
2017-11-29T06:37:19.016Z,19.17
2017-11-29T06:39:47.808Z,22.40
2017-11-29T06:42:15.897Z,20.30
2017-11-29T06:44:44.128Z,21.50
2017-11-29T06:47:12.912Z,21.00
2017-11-29T06:49:41.720Z,23.07
2017-11-29T06:52:09.792Z,20.97
2017-11-29T06:54:38.577Z,24.90
2017-11-29T06:57:07.364Z,21.47
2017-11-29T06:59:35.881Z,27.80
2017-11-29T07:02:03.961Z,22.40
2017-11-29T07:04:32.038Z,21.77
2017-11-29T07:07:00.120Z,21.17
2017-11-29T07:09:28.197Z,24.70
2017-11-29T07:11:56.255Z,21.20
2017-11-29T07:14:24.320Z,21.50
2017-11-29T07:16:52.397Z,22.30
2017-11-29T07:19:20.441Z,21.73
2017-11-29T07:21:48.493Z,22.20
2017-11-29T07:24:16.993Z,21.97
2017-11-29T07:26:45.049Z,21.80
2017-11-29T07:29:13.928Z,23.03
2017-11-29T07:31:41.997Z,21.27
2017-11-29T07:34:10.782Z,21.00
2017-11-29T07:36:38.852Z,21.83
2017-11-29T07:39:06.963Z,21.87
2017-11-29T07:41:35.037Z,23.87
2017-11-29T07:44:03.259Z,22.20
2017-11-29T07:46:31.363Z,21.23
2017-11-29T07:49:00.503Z,25.17
2017-11-29T07:51:28.549Z,24.27
2017-11-29T07:53:56.749Z,20.13
2017-11-29T07:56:24.855Z,21.83
2017-11-29T07:58:52.946Z,20.27
2017-11-29T08:01:21.733Z,22.20
2017-11-29T08:03:49.845Z,21.83
2017-11-29T08:06:17.922Z,21.70
2017-11-29T08:08:45.961Z,27.83
2017-11-29T08:11:14.002Z,22.17
2017-11-29T08:13:42.348Z,20.27
2017-11-29T08:16:10.428Z,20.40
2017-11-29T08:18:38.496Z,22.87
2017-11-29T08:21:06.649Z,21.23
2017-11-29T08:23:34.761Z,21.90
2017-11-29T08:26:02.939Z,19.03
2017-11-29T08:28:31.084Z,20.37
2017-11-29T08:30:59.265Z,20.50
2017-11-29T08:33:27.437Z,20.40
2017-11-29T08:35:55.624Z,20.07
2017-11-29T08:38:24.296Z,19.47
2017-11-29T08:40:52.429Z,22.80
2017-11-29T08:43:21.313Z,21.73
2017-11-29T08:45:50.141Z,20.53
2017-11-29T08:48:18.297Z,19.97
2017-11-29T08:50:46.429Z,21.73
2017-11-29T08:53:16.144Z,20.83
2017-11-29T08:55:44.325Z,17.50
2017-11-29T08:58:12.894Z,20.47
2017-11-29T09:00:41.002Z,19.37
2017-11-29T09:03:09.405Z,17.70
2017-11-29T09:05:37.577Z,19.07
2017-11-29T09:08:05.756Z,19.50
2017-11-29T09:10:33.881Z,17.93
2017-11-29T09:13:02.641Z,21.43
2017-11-29T09:15:30.819Z,18.43
2017-11-29T09:17:59.237Z,20.47
2017-11-29T09:20:28.150Z,18.87
2017-11-29T09:22:56.342Z,21.30
2017-11-29T09:25:24.497Z,18.37
2017-11-29T09:27:52.644Z,17.57
2017-11-29T09:30:21.516Z,19.43
2017-11-29T09:32:49.867Z,18.57
2017-11-29T09:35:17.993Z,17.93
2017-11-29T09:37:47.308Z,19.83
2017-11-29T09:40:15.540Z,17.63
2017-11-29T09:42:43.734Z,18.03
2017-11-29T09:45:11.896Z,17.87
2017-11-29T09:47:40.828Z,20.60
2017-11-29T09:50:09.209Z,17.33
2017-11-29T09:52:37.473Z,17.23
2017-11-29T09:55:05.668Z,16.70
2017-11-29T09:57:34.057Z,16.50
2017-11-29T10:00:03.577Z,19.83
2017-11-29T10:02:31.764Z,16.60
2017-11-29T10:05:00.022Z,16.07
2017-11-29T10:07:28.837Z,17.27
2017-11-29T10:09:57.209Z,17.60
2017-11-29T10:12:25.325Z,18.33
2017-11-29T10:14:54.269Z,17.83
2017-11-29T10:17:22.467Z,18.13
2017-11-29T10:19:50.618Z,18.97
2017-11-29T10:22:18.808Z,17.33
2017-11-29T10:24:47.273Z,19.27
2017-11-29T10:27:15.509Z,16.43
2017-11-29T10:29:43.705Z,15.23
2017-11-29T10:32:11.918Z,16.83
2017-11-29T10:34:40.932Z,17.87
2017-11-29T10:37:09.987Z,16.13
2017-11-29T10:39:38.150Z,17.10
2017-11-29T10:42:06.328Z,16.20
2017-11-29T10:44:34.472Z,15.60
2017-11-29T10:47:02.649Z,15.97
2017-11-29T10:49:30.804Z,15.40
2017-11-29T10:51:59.689Z,15.30
2017-11-29T10:54:28.716Z,17.40
2017-11-29T10:56:56.897Z,19.53
2017-11-29T10:59:25.071Z,14.63
2017-11-29T11:01:53.264Z,15.70
2017-11-29T11:04:21.447Z,18.77
2017-11-29T11:06:49.634Z,16.27
2017-11-29T11:09:17.761Z,16.87
2017-11-29T11:11:46.041Z,18.57
2017-11-29T11:14:14.212Z,18.83
2017-11-29T11:16:42.436Z,19.63
2017-11-29T11:19:10.582Z,20.17
2017-11-29T11:21:38.748Z,15.80
2017-11-29T11:24:06.917Z,20.67
2017-11-29T11:26:35.426Z,20.90
2017-11-29T11:29:03.861Z,18.97
2017-11-29T11:31:32.041Z,23.50
2017-11-29T11:34:00.237Z,20.60
2017-11-29T11:36:28.416Z,18.77
2017-11-29T11:38:56.629Z,18.80
2017-11-29T11:41:24.852Z,20.73
2017-11-29T11:43:53.039Z,20.67
2017-11-29T11:46:21.513Z,19.83
2017-11-29T11:48:49.674Z,20.70
2017-11-29T11:51:17.980Z,21.63
2017-11-29T11:53:46.392Z,25.67
2017-11-29T11:56:14.566Z,21.90
2017-11-29T11:58:42.785Z,21.90
2017-11-29T12:01:11.881Z,20.47
2017-11-29T12:03:40.041Z,20.60
2017-11-29T12:06:08.924Z,19.03
2017-11-29T12:08:37.791Z,18.93
2017-11-29T12:11:06.963Z,19.93
2017-11-29T12:13:35.340Z,22.10
2017-11-29T12:16:04.388Z,20.50
2017-11-29T12:18:33.290Z,21.33
2017-11-29T12:21:01.408Z,28.00
2017-11-29T12:23:29.554Z,24.30
2017-11-29T12:25:57.702Z,24.83
2017-11-29T12:28:26.632Z,23.20
2017-11-29T12:30:54.804Z,23.27
2017-11-29T12:33:22.956Z,23.53
2017-11-29T12:35:51.085Z,22.30
2017-11-29T12:38:19.960Z,26.63
2017-11-29T12:40:48.154Z,21.20
2017-11-29T12:43:16.437Z,21.10
2017-11-29T12:45:44.619Z,17.83
2017-11-29T12:48:27.173Z,21.50
2017-11-29T12:51:09.590Z,20.50
2017-11-29T12:53:37.719Z,19.80
2017-11-29T12:56:05.847Z,21.70
2017-11-29T12:58:34.120Z,20.43
2017-11-29T13:01:02.560Z,23.30
2017-11-29T13:03:30.722Z,21.77
2017-11-29T13:05:59.616Z,21.33
2017-11-29T13:08:28.561Z,21.33
2017-11-29T13:10:57.049Z,19.77
2017-11-29T13:13:25.968Z,21.60
2017-11-29T13:15:54.204Z,20.77
2017-11-29T13:18:22.345Z,21.80
2017-11-29T13:20:50.496Z,21.70
2017-11-29T13:23:18.957Z,24.33
2017-11-29T13:25:47.109Z,20.33
2017-11-29T13:28:15.305Z,23.70
2017-11-29T13:30:43.492Z,18.30
2017-11-29T13:33:11.717Z,17.50
2017-11-29T13:35:39.857Z,17.57
2017-11-29T13:38:08.017Z,19.93
2017-11-29T13:40:36.237Z,17.90
2017-11-29T13:43:05.328Z,15.90
2017-11-29T13:45:33.450Z,16.10
2017-11-29T13:48:01.699Z,22.37
2017-11-29T13:50:29.833Z,16.40
2017-11-29T13:52:58.713Z,18.37
2017-11-29T13:55:27.589Z,17.53
2017-11-29T13:57:55.717Z,17.50
2017-11-29T14:00:23.853Z,17.23
2017-11-29T14:02:52.004Z,19.17
2017-11-29T14:05:20.219Z,22.70
2017-11-29T14:07:48.316Z,19.33
2017-11-29T14:10:16.447Z,17.73
2017-11-29T14:12:45.741Z,23.47
2017-11-29T14:15:13.869Z,17.97
2017-11-29T14:17:41.976Z,20.70
2017-11-29T14:20:10.776Z,19.13
2017-11-29T14:22:39.644Z,19.57
2017-11-29T14:25:07.734Z,16.67
2017-11-29T14:27:36.224Z,15.47
2017-11-29T14:30:04.561Z,18.13
2017-11-29T14:32:32.629Z,15.90
2017-11-29T14:35:01.665Z,16.43
2017-11-29T14:37:38.417Z,16.70
2017-11-29T14:40:07.277Z,21.00
2017-11-29T14:42:35.436Z,17.77
2017-11-29T14:45:03.648Z,20.30
2017-11-29T14:47:31.721Z,18.07
2017-11-29T14:50:00.114Z,16.57
2017-11-29T14:52:28.224Z,20.57
2017-11-29T14:54:57.054Z,19.43
2017-11-29T14:57:25.156Z,23.30
2017-11-29T14:59:53.235Z,20.60
2017-11-29T15:02:22.137Z,20.37
2017-11-29T15:04:50.976Z,23.97
2017-11-29T15:07:19.025Z,22.70
2017-11-29T15:09:47.108Z,19.90
2017-11-29T15:12:15.601Z,17.10
2017-11-29T15:14:43.696Z,18.07
2017-11-29T15:17:11.757Z,18.20
2017-11-29T15:19:39.870Z,15.87
2017-11-29T15:22:08.692Z,15.90
2017-11-29T15:24:36.759Z,17.07
2017-11-29T15:27:05.015Z,16.83
2017-11-29T15:29:34.224Z,18.03
2017-11-29T15:32:03.133Z,22.73
2017-11-29T15:34:31.297Z,18.43
2017-11-29T15:36:59.421Z,16.43
2017-11-29T15:39:27.645Z,20.53
2017-11-29T15:41:55.752Z,21.77
2017-11-29T15:44:23.857Z,21.47
2017-11-29T15:46:51.949Z,21.77
2017-11-29T15:49:20.796Z,21.50
2017-11-29T15:51:49.653Z,19.53
2017-11-29T15:54:18.173Z,23.77
2017-11-29T15:56:46.363Z,21.23
2017-11-29T15:59:14.506Z,21.57
2017-11-29T16:01:42.618Z,25.63
2017-11-29T16:04:10.728Z,19.97
2017-11-29T16:06:38.858Z,19.40
2017-11-29T16:09:07.729Z,18.43
2017-11-29T16:11:36.561Z,20.70
2017-11-29T16:14:05.423Z,20.40
2017-11-29T16:16:34.908Z,22.60
2017-11-29T16:19:03.042Z,25.27
2017-11-29T16:21:31.257Z,21.77
2017-11-29T16:23:59.345Z,22.17
2017-11-29T16:26:27.474Z,22.57
2017-11-29T16:28:55.887Z,24.03
2017-11-29T16:31:24.482Z,30.23
2017-11-29T16:33:52.676Z,23.10
2017-11-29T16:36:20.780Z,20.23
2017-11-29T16:38:48.873Z,21.17
2017-11-29T16:41:17.005Z,21.47
2017-11-29T16:43:45.178Z,23.50
2017-11-29T16:46:14.038Z,21.00
2017-11-29T16:48:42.180Z,20.57
2017-11-29T16:51:10.305Z,18.80
2017-11-29T16:53:38.419Z,19.47
2017-11-29T16:56:06.816Z,22.10
2017-11-29T16:58:34.972Z,21.13
2017-11-29T17:01:03.466Z,23.40
2017-11-29T17:03:31.628Z,21.80
2017-11-29T17:06:00.525Z,24.33
2017-11-29T17:08:28.654Z,22.70
2017-11-29T17:10:57.553Z,27.53
2017-11-29T17:13:25.645Z,23.10
2017-11-29T17:15:53.841Z,23.53
2017-11-29T17:18:22.221Z,21.53
2017-11-29T17:20:50.332Z,24.47
2017-11-29T17:23:18.436Z,20.47
2017-11-29T17:25:46.644Z,24.67
2017-11-29T17:28:14.826Z,21.70
2017-11-29T17:30:43.266Z,25.47
2017-11-29T17:33:12.117Z,22.27
2017-11-29T17:35:40.315Z,23.07
2017-11-29T17:38:08.421Z,22.60
2017-11-29T17:40:36.544Z,26.17
2017-11-29T17:43:04.655Z,23.60
2017-11-29T17:45:32.854Z,29.47
2017-11-29T17:48:00.956Z,23.37
2017-11-29T17:50:29.341Z,24.00
2017-11-29T17:52:57.463Z,21.03
2017-11-29T17:55:25.574Z,25.70
2017-11-29T17:57:53.661Z,25.10
2017-11-29T18:00:23.316Z,21.03
2017-11-29T18:02:51.777Z,24.47
2017-11-29T18:05:20.641Z,22.43
2017-11-29T18:07:48.759Z,20.27
2017-11-29T18:10:16.891Z,21.20
2017-11-29T18:12:44.988Z,18.00
2017-11-29T18:15:13.077Z,21.03
2017-11-29T18:17:41.198Z,22.27
2017-11-29T18:20:09.868Z,20.30
2017-11-29T18:22:38.141Z,18.60
2017-11-29T18:25:06.357Z,18.00
2017-11-29T18:27:36.068Z,20.60
2017-11-29T18:30:04.966Z,17.63
2017-11-29T18:32:33.092Z,16.97
2017-11-29T18:35:01.202Z,22.40
2017-11-29T18:37:29.293Z,22.93
2017-11-29T18:39:58.115Z,17.17
2017-11-29T18:42:26.353Z,19.03
2017-11-29T18:44:54.491Z,19.53
2017-11-29T18:47:22.661Z,20.77
2017-11-29T18:49:51.174Z,17.20
2017-11-29T18:52:19.529Z,22.60
2017-11-29T18:54:47.674Z,22.10
2017-11-29T18:57:15.873Z,21.17
2017-11-29T18:59:44.605Z,22.97
2017-11-29T19:02:13.569Z,23.90
2017-11-29T19:04:41.672Z,26.07
2017-11-29T19:07:09.770Z,20.63
2017-11-29T19:09:38.424Z,26.80
2017-11-29T19:12:06.592Z,26.67
2017-11-29T19:14:35.455Z,27.53
2017-11-29T19:17:03.659Z,27.40
2017-11-29T19:19:32.515Z,26.23
2017-11-29T19:22:00.629Z,24.47
2017-11-29T19:24:28.772Z,26.00
2017-11-29T19:26:56.896Z,28.70
2017-11-29T19:29:24.996Z,28.17
2017-11-29T19:31:53.420Z,26.73
2017-11-29T19:34:22.245Z,24.67
2017-11-29T19:36:51.371Z,25.47
2017-11-29T19:39:19.500Z,27.90
2017-11-29T19:41:47.575Z,23.97
2017-11-29T19:44:16.284Z,22.33
2017-11-29T19:46:44.399Z,23.90
2017-11-29T19:49:12.481Z,19.30
2017-11-29T19:51:42.076Z,22.10
2017-11-29T19:54:10.164Z,15.63
2017-11-29T19:56:40.485Z,18.10
2017-11-29T19:59:08.622Z,16.50
2017-11-29T20:01:36.750Z,14.90
2017-11-29T20:04:05.585Z,18.87
2017-11-29T20:06:33.775Z,19.23
2017-11-29T20:09:01.864Z,15.40
2017-11-29T20:11:30.020Z,22.10
2017-11-29T20:13:58.496Z,19.50
2017-11-29T20:16:26.611Z,19.37
2017-11-29T20:18:54.720Z,16.67
2017-11-29T20:21:22.841Z,22.27
2017-11-29T20:23:50.982Z,22.23
2017-11-29T20:26:19.142Z,18.77
2017-11-29T20:28:47.198Z,20.30
2017-11-29T20:31:15.277Z,20.23
2017-11-29T20:33:43.378Z,18.87
2017-11-29T20:36:11.469Z,20.13
2017-11-29T20:38:39.950Z,22.77
2017-11-29T20:41:08.018Z,21.47
2017-11-29T20:43:36.094Z,20.90
2017-11-29T20:46:05.165Z,22.80
2017-11-29T20:48:33.260Z,24.60
2017-11-29T20:51:03.211Z,23.13
2017-11-29T20:53:32.061Z,24.80
2017-11-29T20:56:00.175Z,23.03
2017-11-29T20:58:28.277Z,20.50
2017-11-29T21:00:56.354Z,22.53
2017-11-29T21:03:24.733Z,22.87
2017-11-29T21:05:52.836Z,18.30
2017-11-29T21:08:20.969Z,23.47
2017-11-29T21:10:49.223Z,21.37
2017-11-29T21:13:17.370Z,20.97
2017-11-29T21:15:45.535Z,20.10
2017-11-29T21:18:14.083Z,20.10
2017-11-29T21:20:42.194Z,24.27
2017-11-29T21:23:11.029Z,38.00
2017-11-29T21:25:39.421Z,24.23
2017-11-29T21:28:07.516Z,28.03
2017-11-29T21:30:35.590Z,25.00
2017-11-29T21:33:03.855Z,34.43
2017-11-29T21:35:32.361Z,28.30
2017-11-29T21:38:00.434Z,25.87
2017-11-29T21:40:28.490Z,29.07
2017-11-29T21:42:56.556Z,30.17
2017-11-29T21:45:24.831Z,28.10
2017-11-29T21:47:52.913Z,34.10
2017-11-29T21:50:21.162Z,30.37
2017-11-29T21:52:49.627Z,35.27
2017-11-29T21:55:17.685Z,44.40
2017-11-29T21:57:46.520Z,29.10
2017-11-29T22:00:14.692Z,30.40
2017-11-29T22:02:42.773Z,31.90
2017-11-29T22:05:11.235Z,26.90
2017-11-29T22:07:39.476Z,27.60
2017-11-29T22:10:08.290Z,27.67
2017-11-29T22:12:36.397Z,30.53
2017-11-29T22:15:04.484Z,31.37
2017-11-29T22:17:33.281Z,32.00
2017-11-29T22:20:01.523Z,28.37
2017-11-29T22:22:29.596Z,35.03
2017-11-29T22:24:58.075Z,30.80
2017-11-29T22:27:26.292Z,26.00
2017-11-29T22:29:54.405Z,32.87
2017-11-29T22:32:22.496Z,32.37
2017-11-29T22:34:50.776Z,29.73
2017-11-29T22:37:18.841Z,28.60
2017-11-29T22:39:46.965Z,26.90
2017-11-29T22:42:15.788Z,31.13
2017-11-29T22:44:44.636Z,28.93
2017-11-29T22:47:12.722Z,26.70
2017-11-29T22:49:40.976Z,31.37
2017-11-29T22:52:09.056Z,28.77
2017-11-29T22:54:38.622Z,29.47
2017-11-29T22:57:06.715Z,25.73
2017-11-29T22:59:34.854Z,29.53
2017-11-29T23:02:04.316Z,26.97
2017-11-29T23:04:32.381Z,28.03
2017-11-29T23:07:01.200Z,29.67
2017-11-29T23:09:29.273Z,27.70
2017-11-29T23:11:57.472Z,28.83
2017-11-29T23:14:26.052Z,28.17
2017-11-29T23:16:54.173Z,26.77
2017-11-29T23:19:22.283Z,25.67
2017-11-29T23:21:50.424Z,27.13
2017-11-29T23:24:19.369Z,29.27
2017-11-29T23:26:47.528Z,25.10
2017-11-29T23:29:15.797Z,29.53
2017-11-29T23:31:43.868Z,32.77
2017-11-29T23:34:12.005Z,26.90
2017-11-29T23:36:40.870Z,25.43
2017-11-29T23:39:08.997Z,22.50
2017-11-29T23:41:37.096Z,27.53
2017-11-29T23:44:05.202Z,28.13
2017-11-29T23:46:33.584Z,26.33
2017-11-29T23:49:02.352Z,23.27
2017-11-29T23:51:30.475Z,24.77
2017-11-29T23:53:59.525Z,26.47
2017-11-29T23:56:27.686Z,21.33
2017-11-29T23:58:55.784Z,25.37
